Terminal Aerodrome Forecast
Issued by NWS

Home | Current Version | Previous Version | Text Only | Print | Product List | Glossary On
Versions: 1 2 3 4 5 6 7 8 9 10 11 12 13 14 15 16
000
FTUS45 KTFX 231100
TAFHLN
TAF
KHLN 231131Z 2312/2412 29008KT P6SM -RA OVC020
     FM231800 30008KT P6SM VCSH SCT015 BKN025
     FM240000 32010KT 6SM -RA OVC010=

USA.gov is the U.S. government's official web portal to all federal, state and local government web resources and services.